Time;durP1;ratioP1;P1;durP2;ratioP2;P2;SDS_P1;SDS_P2;PMS_P1;PMS_P2;Temp;Humidity;BMP_temperature;BMP_pressure;BME280_temperature;BME280_humidity;BME280_pressure;Samples;Min_cycle;Max_cycle;Signal;HPM_P1;HPM_P2
2022/08/06 00:01:18;;;;;;;5.32;4.65;;;19.20;99.90;;;;;;5018577;28;20531;-69
2022/08/06 00:03:50;;;;;;;6.43;4.25;;;19.10;99.90;;;;;;5033152;28;20087;-70
2022/08/06 00:06:22;;;;;;;5.30;4.53;;;19.10;99.90;;;;;;5031595;28;20046;-70
2022/08/06 00:08:54;;;;;;;6.45;4.65;;;19.20;99.90;;;;;;5022582;28;20411;-70
2022/08/06 00:11:25;;;;;;;5.32;4.78;;;19.20;99.90;;;;;;5033155;28;20134;-69
2022/08/06 00:13:57;;;;;;;5.25;3.22;;;19.20;99.90;;;;;;5031931;28;20045;-70
2022/08/06 00:16:29;;;;;;;4.30;3.38;;;19.10;99.90;;;;;;5011884;28;20052;-70
2022/08/06 00:19:01;;;;;;;5.93;3.78;;;19.10;99.90;;;;;;5016085;28;20420;-70
2022/08/06 00:21:33;;;;;;;7.55;4.50;;;19.20;99.90;;;;;;5012466;28;20097;-69
2022/08/06 00:24:05;;;;;;;5.05;3.88;;;19.30;99.90;;;;;;5024124;28;20128;-71
2022/08/06 00:26:39;;;;;;;7.13;3.90;;;19.30;99.90;;;;;;5032624;28;20541;-70
2022/08/06 00:29:12;;;;;;;4.57;3.42;;;19.40;99.90;;;;;;5027149;28;20436;-71
2022/08/06 00:31:44;;;;;;;4.88;3.22;;;19.40;99.90;;;;;;5018231;28;20072;-71
2022/08/06 00:34:15;;;;;;;5.68;3.10;;;19.40;99.90;;;;;;5012606;28;20069;-69
2022/08/06 00:36:47;;;;;;;4.55;3.20;;;19.40;99.90;;;;;;5031067;28;20136;-70
2022/08/06 00:39:19;;;;;;;4.47;3.75;;;19.30;99.90;;;;;;5026847;28;20038;-70
2022/08/06 00:41:51;;;;;;;4.35;3.22;;;19.10;99.90;;;;;;5031322;28;20041;-70
2022/08/06 00:44:22;;;;;;;5.28;3.05;;;19.10;99.90;;;;;;5029159;28;20042;-70
2022/08/06 00:46:54;;;;;;;4.80;2.95;;;19.20;99.90;;;;;;5012582;28;20069;-69
2022/08/06 00:49:26;;;;;;;3.17;2.80;;;19.20;99.90;;;;;;5011512;28;20057;-70
2022/08/06 00:51:58;;;;;;;6.00;3.15;;;19.20;99.90;;;;;;5028957;28;20045;-70
2022/08/06 00:54:30;;;;;;;6.80;3.42;;;19.10;99.90;;;;;;5030735;28;20053;-70
2022/08/06 00:57:04;;;;;;;5.28;3.30;;;19.00;99.90;;;;;;5016969;28;20038;-70
2022/08/06 00:59:35;;;;;;;4.40;2.75;;;18.90;99.90;;;;;;5017999;28;20669;-70
2022/08/06 01:02:07;;;;;;;3.92;2.95;;;18.80;99.90;;;;;;5031434;28;20044;-70
2022/08/06 01:04:39;;;;;;;3.78;2.78;;;18.70;99.90;;;;;;5030839;28;20369;-70
2022/08/06 01:07:11;;;;;;;3.65;2.47;;;18.70;99.90;;;;;;5030769;28;20054;-70
2022/08/06 01:09:42;;;;;;;3.92;2.58;;;18.70;99.90;;;;;;5021705;28;20051;-70
2022/08/06 01:12:15;;;;;;;3.42;2.38;;;18.70;99.90;;;;;;5029122;28;20041;-70
2022/08/06 01:14:47;;;;;;;6.80;3.17;;;18.70;99.90;;;;;;5027977;28;20049;-70
2022/08/06 01:17:23;;;;;;;4.70;2.40;;;18.70;99.90;;;;;;5032045;28;20045;-70
2022/08/06 01:20:13;;;;;;;3.88;2.45;;;18.70;99.90;;;;;;5018431;28;20041;-71
2022/08/06 01:23:01;;;;;;;3.35;2.80;;;18.60;99.90;;;;;;5024211;28;20041;-71
2022/08/06 01:25:46;;;;;;;3.70;3.20;;;18.50;99.90;;;;;;5028886;28;20419;-71
2022/08/06 01:28:26;;;;;;;5.22;3.53;;;18.50;99.90;;;;;;5015611;28;20041;-71
2022/08/06 01:31:16;;;;;;;6.18;3.35;;;18.40;99.90;;;;;;5050105;22;20052;-89
2022/08/06 01:33:52;;;;;;;4.13;2.67;;;18.50;99.90;;;;;;5053665;28;20032;-90
2022/08/06 01:36:26;;;;;;;4.70;3.30;;;18.40;99.90;;;;;;5062062;28;20120;-88
2022/08/06 01:38:56;;;;;;;4.80;3.55;;;18.40;99.90;;;;;;5070600;28;20061;-89
2022/08/06 01:41:39;;;;;;;5.90;3.78;;;18.40;99.90;;;;;;5048284;28;20104;-89
2022/08/06 01:44:10;;;;;;;5.75;4.00;;;18.40;99.90;;;;;;5059369;28;20064;-88
2022/08/06 01:46:41;;;;;;;4.75;3.40;;;18.30;99.90;;;;;;5069130;23;20517;-71
2022/08/06 01:49:15;;;;;;;5.85;3.50;;;18.30;99.90;;;;;;5050735;28;20042;-72
2022/08/06 01:51:50;;;;;;;4.80;3.20;;;18.30;99.90;;;;;;5039465;28;20488;-72
2022/08/06 01:54:22;;;;;;;4.25;3.28;;;18.30;99.90;;;;;;5043451;28;20047;-72
2022/08/06 01:56:57;;;;;;;6.33;4.10;;;18.40;99.90;;;;;;5043018;28;20468;-72
2022/08/06 01:59:34;;;;;;;4.63;4.15;;;18.40;99.90;;;;;;5045162;28;20283;-72
2022/08/06 02:02:10;;;;;;;4.43;3.40;;;18.40;99.90;;;;;;5038298;28;20049;-72
2022/08/06 02:04:40;;;;;;;5.75;4.15;;;18.30;99.90;;;;;;5045781;28;20539;-71
2022/08/06 02:07:16;;;;;;;4.35;3.63;;;18.40;99.90;;;;;;5044879;28;20068;-71
2022/08/06 02:09:50;;;;;;;4.97;3.38;;;18.40;99.90;;;;;;5047200;28;20041;-72
2022/08/06 02:12:25;;;;;;;5.65;3.80;;;18.30;99.90;;;;;;5058705;28;20037;-72
2022/08/06 02:15:19;;;;;;;5.75;4.63;;;18.20;99.90;;;;;;5048040;28;20496;-72
2022/08/06 02:17:54;;;;;;;4.88;4.10;;;18.20;99.90;;;;;;5048891;28;20126;-72
2022/08/06 02:20:31;;;;;;;7.38;4.00;;;18.30;99.90;;;;;;5030063;28;20056;-72
2022/08/06 02:23:06;;;;;;;7.03;5.40;;;18.30;99.90;;;;;;5046362;28;20033;-72
2022/08/06 02:25:39;;;;;;;7.60;6.45;;;18.30;99.90;;;;;;5044140;28;20049;-72
2022/08/06 02:28:07;;;;;;;10.73;7.65;;;18.30;99.90;;;;;;5025715;28;20045;-72
2022/08/06 02:30:42;;;;;;;10.75;8.55;;;18.20;99.90;;;;;;5047840;28;20053;-72
2022/08/06 02:33:15;;;;;;;8.88;6.85;;;18.20;99.90;;;;;;5044652;28;20063;-72
2022/08/06 02:35:57;;;;;;;7.05;5.60;;;18.10;99.90;;;;;;5041800;28;20434;-72
2022/08/06 02:38:36;;;;;;;7.68;5.28;;;17.90;99.90;;;;;;5041458;28;20052;-72
2022/08/06 02:41:34;;;;;;;8.35;5.55;;;17.80;99.90;;;;;;5043121;28;20041;-72
2022/08/06 02:44:12;;;;;;;6.05;5.13;;;17.70;99.90;;;;;;5044154;28;20064;-72
2022/08/06 02:46:54;;;;;;;5.85;4.90;;;17.70;99.90;;;;;;5034496;28;20052;-72
2022/08/06 02:49:28;;;;;;;7.15;5.38;;;17.70;99.90;;;;;;5043668;28;20059;-72
2022/08/06 02:52:19;;;;;;;6.07;4.63;;;17.70;99.90;;;;;;5045181;28;20046;-72
2022/08/06 02:55:00;;;;;;;6.03;4.93;;;17.70;99.90;;;;;;5045999;28;20045;-72
2022/08/06 02:57:47;;;;;;;6.65;4.38;;;17.70;99.90;;;;;;5041440;28;20077;-72
2022/08/06 03:00:20;;;;;;;5.47;4.80;;;17.70;99.90;;;;;;5044016;28;20045;-72
2022/08/06 03:02:56;;;;;;;4.80;4.35;;;17.80;99.90;;;;;;5045697;28;20051;-71
2022/08/06 03:05:25;;;;;;;5.68;4.60;;;17.80;99.90;;;;;;5043452;28;20124;-71
2022/08/06 03:07:57;;;;;;;;;;;17.80;99.90;;;;;;5044650;28;20530;-72
2022/08/06 03:10:31;;;;;;;5.10;3.88;;;17.80;99.90;;;;;;5044398;28;19925;-72
2022/08/06 03:13:05;;;;;;;5.03;4.18;;;17.80;99.90;;;;;;5039312;28;20042;-72
2022/08/06 03:15:38;;;;;;;4.72;3.95;;;17.80;99.90;;;;;;5039860;28;20419;-72
2022/08/06 03:18:12;;;;;;;5.15;4.47;;;17.80;99.90;;;;;;5043786;28;20045;-72
2022/08/06 03:20:44;;;;;;;5.70;4.25;;;17.80;99.90;;;;;;5045531;28;20056;-72
2022/08/06 03:23:16;;;;;;;4.50;4.10;;;17.80;99.90;;;;;;5042716;28;20059;-72
2022/08/06 03:25:49;;;;;;;13.07;5.15;;;17.60;99.90;;;;;;5043793;28;20049;-72
2022/08/06 03:28:22;;;;;;;6.23;3.57;;;17.60;99.90;;;;;;5043096;28;20046;-72
2022/08/06 03:30:54;;;;;;;4.30;3.83;;;17.50;99.90;;;;;;5045267;28;20731;-72
2022/08/06 03:33:27;;;;;;;5.67;3.83;;;17.40;99.90;;;;;;5042583;28;20075;-72
2022/08/06 03:36:00;;;;;;;4.57;4.05;;;17.40;99.90;;;;;;5040296;28;20338;-71
2022/08/06 03:38:38;;;;;;;6.32;3.65;;;17.40;99.90;;;;;;5042026;28;20049;-72
2022/08/06 03:41:12;;;;;;;5.13;4.00;;;17.30;99.90;;;;;;5044704;28;20056;-72
2022/08/06 03:43:43;;;;;;;4.68;3.92;;;17.20;99.90;;;;;;5039287;28;20048;-72
2022/08/06 03:46:25;;;;;;;5.22;4.28;;;17.20;99.90;;;;;;5042694;28;20067;-72
2022/08/06 03:49:01;;;;;;;5.05;4.18;;;17.10;99.90;;;;;;5048669;28;20055;-71
2022/08/06 03:51:36;;;;;;;4.50;3.95;;;17.10;99.90;;;;;;5041096;28;20069;-72
2022/08/06 03:54:08;;;;;;;6.05;4.43;;;17.20;99.90;;;;;;5042809;28;20513;-71
2022/08/06 03:56:42;;;;;;;5.07;4.38;;;17.20;99.90;;;;;;5047766;28;20095;-72
2022/08/06 03:59:14;;;;;;;5.15;4.60;;;17.20;99.90;;;;;;5044715;28;20045;-72
2022/08/06 04:01:47;;;;;;;6.93;4.22;;;17.20;99.90;;;;;;5039019;28;20041;-72
2022/08/06 04:04:15;;;;;;;5.47;4.45;;;17.30;99.90;;;;;;5041149;28;20045;-72
2022/08/06 04:06:47;;;;;;;4.45;3.92;;;17.30;99.90;;;;;;5050885;28;20041;-72
2022/08/06 04:09:20;;;;;;;6.55;4.40;;;17.30;99.90;;;;;;5041853;28;20415;-72
2022/08/06 04:11:54;;;;;;;7.30;4.45;;;17.30;99.90;;;;;;5043113;28;20048;-72
2022/08/06 04:14:26;;;;;;;5.70;4.88;;;17.20;99.90;;;;;;5023257;28;20518;-72
2022/08/06 04:16:58;;;;;;;6.07;5.00;;;17.10;99.90;;;;;;5054673;28;20047;-72
2022/08/06 04:19:32;;;;;;;7.50;5.03;;;17.20;99.90;;;;;;5040907;28;20059;-72
2022/08/06 04:22:04;;;;;;;6.93;5.40;;;17.20;99.90;;;;;;5041658;28;20064;-72
2022/08/06 04:24:36;;;;;;;5.18;4.45;;;17.20;99.90;;;;;;5040136;28;20048;-72
2022/08/06 04:27:09;;;;;;;6.53;4.72;;;17.20;99.90;;;;;;5041203;28;20515;-72
2022/08/06 04:29:38;;;;;;;5.40;4.80;;;17.20;99.90;;;;;;5039241;28;20049;-72
2022/08/06 04:32:12;;;;;;;5.22;4.30;;;17.20;99.90;;;;;;5043676;28;20499;-72
2022/08/06 04:34:40;;;;;;;7.43;4.85;;;17.20;99.90;;;;;;5043585;28;20041;-72
2022/08/06 04:37:07;;;;;;;6.03;5.38;;;17.20;99.90;;;;;;5042826;28;20045;-72
2022/08/06 04:39:39;;;;;;;6.32;5.72;;;17.10;99.90;;;;;;5039599;28;20507;-72
2022/08/06 04:42:07;;;;;;;6.70;5.18;;;17.20;99.90;;;;;;5038564;28;20042;-72
2022/08/06 04:44:39;;;;;;;6.50;5.40;;;17.20;99.90;;;;;;5045935;28;20049;-72
2022/08/06 04:47:12;;;;;;;7.30;5.20;;;17.20;99.90;;;;;;5043229;28;20286;-71
2022/08/06 04:49:43;;;;;;;8.80;4.93;;;17.20;99.90;;;;;;5044159;28;20039;-71
2022/08/06 04:52:23;;;;;;;7.18;5.10;;;17.10;99.90;;;;;;5039109;28;20037;-72
2022/08/06 04:54:55;;;;;;;7.50;5.30;;;17.10;99.90;;;;;;5038249;28;20045;-72
2022/08/06 04:57:27;;;;;;;8.95;5.10;;;17.10;99.90;;;;;;5041907;28;20073;-72
2022/08/06 04:59:58;;;;;;;5.85;5.20;;;17.00;99.90;;;;;;5055528;28;20049;-71
2022/08/06 05:02:30;;;;;;;5.97;5.20;;;17.00;99.90;;;;;;5041435;28;20075;-72
2022/08/06 05:05:03;;;;;;;6.60;4.95;;;17.00;99.90;;;;;;5042794;28;20041;-72
2022/08/06 05:07:36;;;;;;;5.53;5.00;;;16.90;99.90;;;;;;5039696;28;20448;-72
2022/08/06 05:10:08;;;;;;;5.78;5.15;;;16.90;99.90;;;;;;5041187;28;20041;-72
2022/08/06 05:12:44;;;;;;;5.35;4.50;;;16.90;99.90;;;;;;5041665;28;20037;-72
2022/08/06 05:15:23;;;;;;;5.50;5.00;;;16.90;99.90;;;;;;5041422;28;20060;-71
2022/08/06 05:18:12;;;;;;;5.97;5.03;;;16.80;99.90;;;;;;5038717;28;20041;-72
2022/08/06 05:20:52;;;;;;;8.15;5.70;;;16.80;99.90;;;;;;5056933;28;20037;-72
2022/08/06 05:23:28;;;;;;;6.20;5.32;;;16.80;99.90;;;;;;5042908;28;20052;-72
2022/08/06 05:26:00;;;;;;;6.75;5.65;;;16.90;99.90;;;;;;5040400;28;20045;-71
2022/08/06 05:28:32;;;;;;;8.18;5.78;;;16.90;99.90;;;;;;5038732;28;20071;-72
2022/08/06 05:31:04;;;;;;;7.97;5.95;;;16.90;99.90;;;;;;5044523;28;20067;-72
2022/08/06 05:33:39;;;;;;;6.38;5.72;;;16.90;99.90;;;;;;5031445;28;20049;-72
2022/08/06 05:36:12;;;;;;;5.32;4.80;;;16.90;99.90;;;;;;5041005;28;20414;-72
2022/08/06 05:38:43;;;;;;;5.47;4.68;;;16.90;99.90;;;;;;5036805;28;20041;-71
2022/08/06 05:41:15;;;;;;;8.30;5.90;;;16.80;99.90;;;;;;5041922;28;20488;-72
2022/08/06 05:43:47;;;;;;;5.28;4.75;;;16.90;99.90;;;;;;5038609;28;20044;-72
2022/08/06 05:46:22;;;;;;;5.63;5.07;;;16.80;99.90;;;;;;5040513;28;20037;-72
2022/08/06 05:48:59;;;;;;;5.28;4.78;;;16.80;99.90;;;;;;5044834;28;20045;-72
2022/08/06 05:51:48;;;;;;;7.65;5.00;;;16.80;99.90;;;;;;5035610;28;20061;-72
2022/08/06 05:54:50;;;;;;;6.05;4.32;;;16.80;99.90;;;;;;5038967;28;20052;-72
2022/08/06 05:57:34;;;;;;;7.45;5.15;;;16.80;99.90;;;;;;5038483;28;20057;-71
2022/08/06 06:00:10;;;;;;;6.57;4.50;;;16.80;99.90;;;;;;5042591;28;20072;-72
2022/08/06 06:02:46;;;;;;;5.32;4.80;;;16.80;99.90;;;;;;5039618;28;20463;-72
2022/08/06 06:05:13;;;;;;;6.43;5.22;;;16.90;99.90;;;;;;5040776;28;20546;-72
2022/08/06 06:07:46;;;;;;;4.53;4.13;;;16.90;99.90;;;;;;5040115;28;20065;-72
2022/08/06 06:10:20;;;;;;;6.10;5.40;;;17.00;99.90;;;;;;5046470;28;20081;-72
2022/08/06 06:12:53;;;;;;;5.15;4.50;;;17.00;99.90;;;;;;5031196;28;20049;-71
2022/08/06 06:15:25;;;;;;;5.30;4.80;;;17.00;99.90;;;;;;5041073;28;20511;-72
2022/08/06 06:18:28;;;;;;;4.93;4.43;;;17.00;99.90;;;;;;5048782;28;20056;-72
2022/08/06 06:21:28;;;;;;;4.82;4.00;;;17.00;99.90;;;;;;5031848;28;20045;-72
2022/08/06 06:24:24;;;;;;;8.82;4.78;;;17.00;99.90;;;;;;5038052;28;20044;-72
2022/08/06 06:27:00;;;;;;;6.07;4.00;;;17.00;99.90;;;;;;5042891;28;20404;-72
2022/08/06 06:29:43;;;;;;;4.07;3.67;;;17.00;99.90;;;;;;5044327;28;20423;-72
2022/08/06 06:32:23;;;;;;;6.03;4.28;;;17.00;99.90;;;;;;5041350;28;20053;-72
2022/08/06 06:35:17;;;;;;;6.00;4.18;;;17.00;99.90;;;;;;5050295;28;20447;-71
2022/08/06 06:37:51;;;;;;;4.15;3.70;;;17.10;99.90;;;;;;5038658;28;20041;-72
2022/08/06 06:40:55;;;;;;;4.28;3.75;;;17.00;99.90;;;;;;5040410;28;20048;-72
2022/08/06 06:43:46;;;;;;;6.32;3.63;;;17.00;99.90;;;;;;5011523;28;20049;-72
2022/08/06 06:46:38;;;;;;;7.32;4.18;;;17.10;99.90;;;;;;5039561;28;20045;-72
2022/08/06 06:49:15;;;;;;;3.90;3.50;;;17.20;99.90;;;;;;5046616;28;20529;-72
2022/08/06 06:51:53;;;;;;;4.32;3.22;;;17.20;99.90;;;;;;5059979;28;20057;-72
2022/08/06 06:54:31;;;;;;;7.10;4.07;;;17.20;99.90;;;;;;5053686;28;20041;-71
2022/08/06 06:57:06;;;;;;;7.78;4.22;;;17.20;99.90;;;;;;5048570;28;20041;-71
2022/08/06 06:59:43;;;;;;;4.97;4.47;;;17.20;99.90;;;;;;5046759;28;20061;-71
2022/08/06 07:02:21;;;;;;;4.55;4.15;;;17.10;99.90;;;;;;5052325;28;20057;-72
2022/08/06 07:04:54;;;;;;;4.82;3.85;;;17.00;99.90;;;;;;5049594;28;20076;-71
2022/08/06 07:07:29;;;;;;;4.35;3.95;;;17.00;99.90;;;;;;5036463;28;20415;-71
2022/08/06 07:09:57;;;;;;;5.82;3.83;;;17.00;99.90;;;;;;5032229;28;20056;-72
2022/08/06 07:12:32;;;;;;;6.68;4.32;;;17.00;99.90;;;;;;5047675;28;20046;-71
2022/08/06 07:15:08;;;;;;;5.82;4.63;;;16.90;99.90;;;;;;5043120;28;20402;-72
2022/08/06 07:17:41;;;;;;;5.05;4.63;;;16.90;99.90;;;;;;5044707;28;20045;-72
2022/08/06 07:20:16;;;;;;;5.00;4.47;;;17.00;99.90;;;;;;5039786;28;20517;-72
2022/08/06 07:22:48;;;;;;;7.18;5.20;;;17.00;99.90;;;;;;5056677;28;20046;-71
2022/08/06 07:25:20;;;;;;;5.68;5.07;;;16.90;99.90;;;;;;5040567;28;20052;-71
2022/08/06 07:27:50;;;;;;;9.05;6.35;;;17.00;99.90;;;;;;5046345;28;20411;-71
2022/08/06 07:30:22;;;;;;;9.45;7.70;;;17.00;99.90;;;;;;5051354;28;20535;-71
2022/08/06 07:32:49;;;;;;;9.18;8.30;;;16.90;99.90;;;;;;5056574;28;20052;-71
2022/08/06 07:35:21;;;;;;;9.48;8.57;;;16.90;99.90;;;;;;5066951;23;20041;-72
2022/08/06 07:37:54;;;;;;;7.07;6.40;;;16.80;99.90;;;;;;5062857;28;20506;-71
2022/08/06 07:40:33;;;;;;;8.25;6.95;;;16.80;99.90;;;;;;5068249;28;20487;-71
2022/08/06 07:43:15;;;;;;;13.90;7.53;;;16.70;99.90;;;;;;5065010;28;20102;-71
2022/08/06 07:45:49;;;;;;;8.82;7.47;;;16.70;99.90;;;;;;5063316;28;20036;-71
2022/08/06 07:48:38;;;;;;;8.38;6.45;;;16.70;99.90;;;;;;5059329;28;20051;-71
2022/08/06 07:51:11;;;;;;;10.73;6.60;;;16.70;99.90;;;;;;5056739;28;20041;-71
2022/08/06 07:53:45;;;;;;;8.88;7.00;;;16.70;99.90;;;;;;5058466;28;20036;-71
2022/08/06 07:56:18;;;;;;;7.90;6.68;;;16.70;99.90;;;;;;5059051;28;20040;-71
2022/08/06 07:58:51;;;;;;;9.40;7.22;;;16.80;99.90;;;;;;5054394;28;20051;-71
2022/08/06 08:01:18;;;;;;;8.70;7.75;;;16.80;99.90;;;;;;5064624;28;20516;-71
2022/08/06 08:06:41;;;;;;;8.55;7.57;;;16.90;99.90;;;;;;5061360;28;20040;-71
2022/08/06 08:09:16;;;;;;;8.60;7.75;;;17.00;99.90;;;;;;5063529;28;20075;-71
2022/08/06 08:11:46;;;;;;;8.25;7.45;;;17.10;99.90;;;;;;5068938;28;20045;-71
2022/08/06 08:14:19;;;;;;;9.18;7.85;;;17.20;99.90;;;;;;5059216;28;20037;-72
2022/08/06 08:16:52;;;;;;;9.40;8.50;;;17.20;99.90;;;;;;5060289;28;20047;-71
2022/08/06 08:19:32;;;;;;;9.48;8.57;;;17.30;99.90;;;;;;5058603;28;20041;-72
2022/08/06 08:22:10;;;;;;;9.32;8.35;;;17.30;99.90;;;;;;5057446;28;20045;-71
2022/08/06 08:24:44;;;;;;;9.10;8.15;;;17.30;99.90;;;;;;5060805;28;20037;-71
2022/08/06 08:27:16;;;;;;;9.40;8.50;;;17.20;99.90;;;;;;5062136;28;20047;-71
2022/08/06 08:29:48;;;;;;;8.25;6.13;;;17.20;99.90;;;;;;5065910;28;20044;-70
2022/08/06 08:32:21;;;;;;;7.95;7.07;;;17.30;99.90;;;;;;5055063;28;20049;-71
2022/08/06 08:34:53;;;;;;;10.57;9.27;;;17.60;99.90;;;;;;5064197;28;20051;-70
2022/08/06 08:37:20;;;;;;;10.48;9.02;;;17.80;99.90;;;;;;5067394;28;20043;-71
2022/08/06 08:39:51;;;;;;;9.65;8.65;;;17.80;99.90;;;;;;5057627;28;20499;-71
2022/08/06 08:42:33;;;;;;;10.38;9.05;;;17.70;99.90;;;;;;5062423;28;20041;-72
2022/08/06 08:45:05;;;;;;;9.32;8.32;;;17.70;99.90;;;;;;5058105;28;20040;-71
2022/08/06 08:47:43;;;;;;;10.65;8.65;;;17.60;99.90;;;;;;5062501;28;20128;-71
2022/08/06 08:50:17;;;;;;;11.15;8.95;;;17.60;99.90;;;;;;5068761;28;20117;-71
2022/08/06 08:53:16;;;;;;;10.20;9.20;;;17.70;99.90;;;;;;5053628;28;20045;-71
2022/08/06 08:55:48;;;;;;;10.32;9.10;;;17.80;99.90;;;;;;5063760;28;20047;-70
2022/08/06 08:58:21;;;;;;;10.68;9.65;;;17.80;99.90;;;;;;5064271;28;20044;-71
2022/08/06 09:00:53;;;;;;;9.82;8.90;;;17.90;99.90;;;;;;5058386;28;20530;-71
2022/08/06 09:03:24;;;;;;;12.18;9.23;;;17.90;99.90;;;;;;5058919;28;20049;-72
2022/08/06 09:05:56;;;;;;;10.75;9.45;;;17.90;99.90;;;;;;5060811;28;20037;-71
2022/08/06 09:08:29;;;;;;;10.85;9.57;;;17.80;99.90;;;;;;5059503;28;20060;-70
2022/08/06 09:11:01;;;;;;;11.63;10.52;;;17.80;99.90;;;;;;5054533;28;20051;-72
2022/08/06 09:13:33;;;;;;;10.57;9.57;;;17.80;99.90;;;;;;5061706;28;20052;-71
2022/08/06 09:16:05;;;;;;;13.23;9.65;;;17.90;99.90;;;;;;5063334;28;20518;-71
2022/08/06 09:18:37;;;;;;;10.65;9.63;;;17.90;99.90;;;;;;5066090;28;20044;-71
2022/08/06 09:21:08;;;;;;;10.65;9.07;;;17.90;99.90;;;;;;5039876;28;20533;-71
2022/08/06 09:23:40;;;;;;;12.80;10.27;;;17.90;99.90;;;;;;5064565;28;20037;-71
2022/08/06 09:26:12;;;;;;;11.95;10.80;;;18.00;99.90;;;;;;5060877;28;20041;-71
2022/08/06 09:28:44;;;;;;;11.52;10.43;;;18.00;99.90;;;;;;5078408;28;20051;-71
2022/08/06 09:31:19;;;;;;;13.77;10.90;;;17.90;99.90;;;;;;5089591;28;20048;-71
2022/08/06 09:33:56;;;;;;;12.57;11.35;;;17.90;99.90;;;;;;5061731;28;20048;-70
2022/08/06 09:36:40;;;;;;;14.18;11.18;;;17.90;99.90;;;;;;5065588;28;20041;-71
2022/08/06 09:39:12;;;;;;;16.58;12.90;;;17.90;99.90;;;;;;5057359;28;20041;-71
2022/08/06 09:41:48;;;;;;;13.48;12.07;;;18.00;99.90;;;;;;5057908;28;20044;-72
2022/08/06 09:44:15;;;;;;;13.05;11.60;;;18.10;99.90;;;;;;5063529;28;20128;-71
2022/08/06 09:46:52;;;;;;;20.98;12.68;;;18.20;99.90;;;;;;5062633;28;20451;-71
2022/08/06 09:49:23;;;;;;;13.43;12.02;;;18.20;99.90;;;;;;5065211;28;20045;-72
2022/08/06 09:52:11;;;;;;;15.82;13.10;;;18.30;99.90;;;;;;5060999;28;20040;-72
2022/08/06 09:54:45;;;;;;;15.10;13.60;;;18.30;99.90;;;;;;5079719;28;20586;-71
2022/08/06 09:57:17;;;;;;;13.98;12.57;;;18.30;99.90;;;;;;5064889;28;20037;-71
2022/08/06 09:59:49;;;;;;;14.52;13.10;;;18.40;99.90;;;;;;5059228;28;20047;-71
2022/08/06 10:02:21;;;;;;;14.23;12.40;;;18.30;99.90;;;;;;5051430;28;20041;-70
2022/08/06 10:04:53;;;;;;;14.88;13.02;;;18.20;99.90;;;;;;5059616;28;20044;-72
2022/08/06 10:07:30;;;;;;;14.05;12.65;;;18.10;99.90;;;;;;5062819;28;20118;-72
2022/08/06 10:10:03;;;;;;;13.90;11.82;;;18.20;99.90;;;;;;5055856;28;20043;-72
2022/08/06 10:12:34;;;;;;;14.33;12.83;;;18.20;99.90;;;;;;5039050;28;20585;-71
2022/08/06 10:15:06;;;;;;;14.18;11.98;;;18.20;99.90;;;;;;5038862;28;20040;-71
2022/08/06 10:17:45;;;;;;;13.30;11.88;;;18.20;99.90;;;;;;5062045;28;20064;-70
2022/08/06 10:20:18;;;;;;;16.13;11.95;;;18.10;99.90;;;;;;5054664;28;20051;-72
2022/08/06 10:22:53;;;;;;;16.65;12.50;;;18.10;99.90;;;;;;5067120;28;20051;-71
2022/08/06 10:25:29;;;;;;;13.65;12.30;;;18.10;99.90;;;;;;5063796;28;20037;-71
2022/08/06 10:28:01;;;;;;;13.63;12.23;;;18.10;99.90;;;;;;5066561;28;20041;-71
2022/08/06 10:30:33;;;;;;;14.38;13.02;;;18.20;99.90;;;;;;5069662;28;20077;-71
2022/08/06 10:33:07;;;;;;;14.25;12.85;;;18.30;99.90;;;;;;5066952;28;20080;-71
2022/08/06 10:35:43;;;;;;;14.00;12.55;;;18.30;99.90;;;;;;5062204;28;20041;-72
2022/08/06 10:38:20;;;;;;;19.88;12.90;;;18.50;99.90;;;;;;5066013;28;20043;-71
2022/08/06 10:40:53;;;;;;;15.65;14.02;;;18.60;99.90;;;;;;5060182;28;20059;-70
2022/08/06 10:43:26;;;;;;;14.38;12.63;;;18.70;99.90;;;;;;5062108;28;20048;-71
2022/08/06 10:45:58;;;;;;;13.35;12.07;;;18.80;99.90;;;;;;5066499;28;20407;-72
2022/08/06 10:48:30;;;;;;;14.20;11.77;;;18.90;99.90;;;;;;5063035;28;20049;-71
2022/08/06 10:51:03;;;;;;;12.95;11.60;;;19.00;99.90;;;;;;5060048;28;20048;-72
2022/08/06 10:53:38;;;;;;;12.70;11.40;;;19.00;99.90;;;;;;5070228;28;20528;-71
2022/08/06 10:56:07;;;;;;;14.23;11.43;;;19.00;99.90;;;;;;5065052;28;20113;-70
2022/08/06 10:58:40;;;;;;;13.52;11.90;;;18.90;99.90;;;;;;5084223;28;20057;-70
2022/08/06 11:01:21;;;;;;;13.60;12.30;;;18.90;99.90;;;;;;5061551;28;20487;-71
2022/08/06 11:04:13;;;;;;;14.02;12.38;;;18.90;99.90;;;;;;5060995;28;20045;-71
2022/08/06 11:07:08;;;;;;;13.52;12.23;;;19.00;99.90;;;;;;5068935;28;20127;-72
2022/08/06 11:09:40;;;;;;;13.52;11.45;;;19.00;99.90;;;;;;5059278;28;20408;-70
2022/08/06 11:12:45;;;;;;;13.55;12.25;;;18.90;99.90;;;;;;5065367;28;20049;-72
2022/08/06 11:15:18;;;;;;;24.42;10.40;;;18.90;99.90;;;;;;5058994;28;20064;-72
2022/08/06 11:17:53;;;;;;;13.40;11.88;;;19.00;99.90;;;;;;5059985;28;20060;-72
2022/08/06 11:20:32;;;;;;;13.95;12.65;;;19.00;99.90;;;;;;5059505;28;20040;-72
2022/08/06 11:23:11;;;;;;;12.80;11.30;;;19.10;99.90;;;;;;5062911;28;20037;-72
2022/08/06 11:25:46;;;;;;;13.20;12.00;;;19.10;99.90;;;;;;5062580;28;20029;-72
2022/08/06 11:28:38;;;;;;;13.25;11.80;;;19.20;99.90;;;;;;5060554;28;20044;-71
2022/08/06 11:31:36;;;;;;;14.10;12.65;;;19.20;99.90;;;;;;5050821;28;20063;-72
2022/08/06 11:34:13;;;;;;;14.82;12.38;;;19.30;99.90;;;;;;5052003;28;20079;-71
2022/08/06 11:36:46;;;;;;;13.95;12.27;;;19.30;99.90;;;;;;5066312;28;20142;-71
2022/08/06 11:39:20;;;;;;;12.35;11.15;;;19.40;99.90;;;;;;5059334;28;20071;-71
2022/08/06 11:42:03;;;;;;;25.67;14.15;;;19.50;99.90;;;;;;5052430;28;20059;-71
2022/08/06 11:44:35;;;;;;;12.93;11.73;;;19.70;99.90;;;;;;5060003;28;20051;-70
2022/08/06 11:47:18;;;;;;;12.80;11.60;;;19.90;99.90;;;;;;5066469;28;20044;-71
2022/08/06 11:49:50;;;;;;;13.07;11.63;;;20.10;99.90;;;;;;5059071;28;20049;-71
2022/08/06 11:52:42;;;;;;;12.43;11.23;;;20.20;99.90;;;;;;5070311;28;20049;-71
2022/08/06 11:55:15;;;;;;;12.07;10.98;;;20.20;99.90;;;;;;5057331;28;20360;-71
2022/08/06 11:57:48;;;;;;;12.25;11.15;;;20.30;99.90;;;;;;5064221;28;20491;-71
2022/08/06 12:00:22;;;;;;;12.57;11.32;;;20.30;99.90;;;;;;5064403;28;20036;-70
2022/08/06 12:02:55;;;;;;;11.60;10.50;;;20.40;99.90;;;;;;5061339;28;20041;-70
2022/08/06 12:05:26;;;;;;;10.60;9.60;;;20.40;99.90;;;;;;5060641;28;20048;-71
2022/08/06 12:08:19;;;;;;;11.40;10.30;;;20.40;99.90;;;;;;5048520;28;20060;-71
2022/08/06 12:11:23;;;;;;;12.00;10.85;;;20.50;99.90;;;;;;5063543;28;20067;-71
2022/08/06 12:13:56;;;;;;;12.60;10.63;;;20.60;99.90;;;;;;5060373;28;20041;-71
2022/08/06 12:16:30;;;;;;;11.55;10.15;;;20.70;99.90;;;;;;5061555;28;20045;-71
2022/08/06 12:19:04;;;;;;;11.02;9.90;;;20.80;99.90;;;;;;5046860;28;20450;-71
2022/08/06 12:21:38;;;;;;;11.15;10.15;;;20.80;99.90;;;;;;5057441;28;20044;-71
2022/08/06 12:24:11;;;;;;;11.00;9.93;;;20.90;99.90;;;;;;5062738;28;20439;-71
2022/08/06 12:26:43;;;;;;;12.15;10.95;;;20.90;99.90;;;;;;5061110;28;20043;-71
2022/08/06 12:29:15;;;;;;;11.40;10.30;;;20.90;99.90;;;;;;5073873;28;20040;-71
2022/08/06 12:31:46;;;;;;;11.70;10.50;;;21.00;99.90;;;;;;5068319;28;20131;-71
2022/08/06 12:34:26;;;;;;;11.57;10.48;;;21.10;99.90;;;;;;5057668;28;20063;-70
2022/08/06 12:36:58;;;;;;;11.20;10.05;;;21.10;99.90;;;;;;5060977;28;20470;-72
2022/08/06 12:42:29;;;;;;;10.48;9.57;;;21.00;99.90;;;;;;5057949;28;20069;-71
2022/08/06 12:45:01;;;;;;;11.38;10.38;;;21.10;99.90;;;;;;5061052;28;20403;-71
2022/08/06 12:47:33;;;;;;;10.95;9.88;;;21.10;99.90;;;;;;5062620;28;20419;-71
2022/08/06 12:50:20;;;;;;;10.80;9.80;;;21.10;99.90;;;;;;5056999;28;20048;-71
2022/08/06 12:53:21;;;;;;;10.77;9.77;;;21.20;99.90;;;;;;5060402;28;20055;-71
2022/08/06 12:55:53;;;;;;;10.93;9.82;;;21.40;99.90;;;;;;5047926;28;20452;-70
2022/08/06 12:58:36;;;;;;;12.68;10.85;;;21.50;99.90;;;;;;5063887;28;20541;-71
2022/08/06 13:01:12;;;;;;;11.40;10.30;;;21.60;99.90;;;;;;5058482;28;20033;-70
2022/08/06 13:03:53;;;;;;;10.07;9.10;;;21.60;99.90;;;;;;5063869;28;20399;-70
2022/08/06 13:06:27;;;;;;;11.77;8.80;;;21.60;99.90;;;;;;5063629;28;20524;-71
2022/08/06 13:08:59;;;;;;;8.77;7.97;;;21.70;99.90;;;;;;5058741;28;20055;-72
2022/08/06 13:11:32;;;;;;;8.80;8.00;;;21.80;99.90;;;;;;5058068;28;20078;-73
2022/08/06 13:14:10;;;;;;;13.00;8.30;;;22.00;99.90;;;;;;5067332;28;20121;-69
2022/08/06 13:16:44;;;;;;;9.75;8.60;;;22.10;99.90;;;;;;5061260;28;20048;-69
2022/08/06 13:19:17;;;;;;;11.00;9.88;;;22.10;99.90;;;;;;5055094;28;20048;-70
2022/08/06 13:21:59;;;;;;;8.90;7.60;;;22.20;99.90;;;;;;5065102;28;20495;-70
2022/08/06 13:24:31;;;;;;;9.00;8.20;;;22.30;99.90;;;;;;5059212;28;20040;-69
2022/08/06 13:27:03;;;;;;;9.00;8.20;;;22.30;99.90;;;;;;5064442;28;20047;-71
2022/08/06 13:29:35;;;;;;;9.32;8.30;;;22.30;99.90;;;;;;5059073;28;20063;-70